createdAt,value
2019-04-11T00:00:57.567Z,1001.09
2019-04-11T00:01:56.395Z,1001.04
2019-04-11T00:02:57.312Z,1001.07
2019-04-11T00:03:56.301Z,1001.11
2019-04-11T00:04:56.663Z,1001.11
2019-04-11T00:05:56.260Z,1001.09
2019-04-11T00:06:56.246Z,1001.12
2019-04-11T00:07:59.180Z,1001.14
2019-04-11T00:08:56.527Z,1001.14
2019-04-11T00:09:56.813Z,1001.11
2019-04-11T00:10:56.227Z,1001.12
2019-04-11T00:11:56.195Z,1001.07
2019-04-11T00:12:57.002Z,1001.12
2019-04-11T00:13:56.197Z,1001.09
2019-04-11T00:14:56.194Z,1001.11
2019-04-11T00:15:57.167Z,1001.12
2019-04-11T00:16:57.287Z,1001.12
2019-04-11T00:17:56.485Z,1001.07
2019-04-11T00:18:56.942Z,1001.12
2019-04-11T00:19:56.107Z,1001.10
2019-04-11T00:20:56.255Z,1001.07
2019-04-11T00:21:57.221Z,1001.11
2019-04-11T00:22:56.076Z,1001.09
2019-04-11T00:23:56.600Z,1001.13
2019-04-11T00:24:56.046Z,1001.16
2019-04-11T00:25:56.040Z,1001.18
2019-04-11T00:26:57.006Z,1001.18
2019-04-11T00:27:57.043Z,1001.13
2019-04-11T00:28:56.269Z,1001.18
2019-04-11T00:29:55.992Z,1001.19
2019-04-11T00:30:56.676Z,1001.14
2019-04-11T00:31:56.967Z,1001.16
2019-04-11T00:32:56.132Z,1001.17
2019-04-11T00:33:56.370Z,1001.23
2019-04-11T00:34:55.938Z,1001.18
2019-04-11T00:35:55.925Z,1001.24
2019-04-11T00:36:56.829Z,1001.23
2019-04-11T00:37:56.943Z,1001.27
2019-04-11T00:38:55.891Z,1001.27
2019-04-11T00:39:56.279Z,1001.29
2019-04-11T00:40:55.868Z,1001.27
2019-04-11T00:41:56.545Z,1001.27
2019-04-11T00:42:55.877Z,1001.28
2019-04-11T00:43:56.703Z,1001.32
2019-04-11T00:44:57.000Z,1001.32
2019-04-11T00:45:56.110Z,1001.36
2019-04-11T00:46:56.359Z,1001.36
2019-04-11T00:47:55.807Z,1001.35
2019-04-11T00:48:55.803Z,1001.36
2019-04-11T00:49:56.820Z,1001.38
2019-04-11T00:50:56.002Z,1001.33
2019-04-11T00:51:56.190Z,1001.37
2019-04-11T00:52:55.853Z,1001.37
2019-04-11T00:53:55.724Z,1001.39
2019-04-11T00:54:55.737Z,1001.38
2019-04-11T00:55:55.799Z,1001.35
2019-04-11T00:56:56.683Z,1001.41
2019-04-11T00:57:55.686Z,1001.41
2019-04-11T00:58:56.102Z,1001.40
2019-04-11T00:59:56.484Z,1001.43
2019-04-11T01:00:55.646Z,1001.43
2019-04-11T01:01:56.772Z,1001.45
2019-04-11T01:02:55.918Z,1001.43
2019-04-11T01:03:55.806Z,1001.49
2019-04-11T01:04:55.604Z,1001.43
2019-04-11T01:05:56.689Z,1001.44
2019-04-11T01:06:55.594Z,1001.45
2019-04-11T01:07:56.729Z,1001.42
2019-04-11T01:08:55.801Z,1001.43
2019-04-11T01:09:55.547Z,1001.44
2019-04-11T01:10:55.539Z,1001.46
2019-04-11T01:11:56.329Z,1001.39
2019-04-11T01:12:56.613Z,1001.43
2019-04-11T01:13:55.817Z,1001.44
2019-04-11T01:14:55.498Z,1001.45
2019-04-11T01:15:56.503Z,1001.50
2019-04-11T01:16:55.472Z,1001.49
2019-04-11T01:17:55.965Z,1001.48
2019-04-11T01:18:55.474Z,1001.49
2019-04-11T01:19:55.452Z,1001.47
2019-04-11T01:20:55.717Z,1001.49
2019-04-11T01:21:55.416Z,1001.52
2019-04-11T01:22:56.411Z,1001.48
2019-04-11T01:23:55.489Z,1001.47
2019-04-11T01:24:55.768Z,1001.54
2019-04-11T01:25:55.367Z,1001.51
2019-04-11T01:26:55.384Z,1001.47
2019-04-11T01:27:56.428Z,1001.46
2019-04-11T01:28:55.430Z,1001.49
2019-04-11T01:29:55.716Z,1001.48
2019-04-11T01:30:55.557Z,1001.51
2019-04-11T01:31:55.336Z,1001.47
2019-04-11T01:32:55.289Z,1001.43
2019-04-11T01:33:56.052Z,1001.42
2019-04-11T01:34:55.305Z,1001.41
2019-04-11T01:35:55.423Z,1001.38
2019-04-11T01:36:55.543Z,1001.42
2019-04-11T01:37:55.753Z,1001.44
2019-04-11T01:38:55.223Z,1001.42
2019-04-11T01:39:55.215Z,1001.51
2019-04-11T01:40:56.175Z,1001.42
2019-04-11T01:41:55.230Z,1001.45
2019-04-11T01:42:55.525Z,1001.51
2019-04-11T01:44:00.948Z,1001.53
2019-04-11T01:44:56.929Z,1001.47
2019-04-11T01:45:55.975Z,1001.48
2019-04-11T01:46:56.091Z,1001.51
2019-04-11T01:47:55.319Z,1001.51
2019-04-11T01:48:55.607Z,1001.47
2019-04-11T01:49:55.097Z,1001.53
2019-04-11T01:50:55.111Z,1001.51
2019-04-11T01:51:56.044Z,1001.53
2019-04-11T01:52:55.093Z,1001.53
2019-04-11T01:53:55.379Z,1001.54
2019-04-11T01:54:56.308Z,1001.53
2019-04-11T01:55:55.042Z,1001.55
2019-04-11T01:56:55.818Z,1001.58
2019-04-11T01:57:55.160Z,1001.52
2019-04-11T01:58:55.304Z,1001.55
2019-04-11T01:59:55.580Z,1001.57
2019-04-11T02:00:54.979Z,1001.56
2019-04-11T02:01:54.989Z,1001.63
2019-04-11T02:02:54.986Z,1001.63
2019-04-11T02:03:55.348Z,1001.64
2019-04-11T02:04:54.935Z,1001.65
2019-04-11T02:05:54.920Z,1001.62
2019-04-11T02:06:54.909Z,1001.64
2019-04-11T02:07:55.330Z,1001.65
2019-04-11T02:08:55.651Z,1001.66
2019-04-11T02:09:54.901Z,1001.69
2019-04-11T02:10:54.957Z,1001.72
2019-04-11T02:11:56.078Z,1001.66
2019-04-11T02:12:55.296Z,1001.64
2019-04-11T02:14:05.111Z,1001.70
2019-04-11T02:14:55.846Z,1001.65
2019-04-11T02:15:56.833Z,1001.68
2019-04-11T02:16:54.799Z,1001.73
2019-04-11T02:17:55.058Z,1001.73
2019-04-11T02:18:56.058Z,1001.73
2019-04-11T02:19:54.770Z,1001.69
2019-04-11T02:20:55.703Z,1001.71
2019-04-11T02:21:54.889Z,1001.74
2019-04-11T02:22:55.011Z,1001.75
2019-04-11T02:23:55.283Z,1001.73
2019-04-11T02:24:54.726Z,1001.74
2019-04-11T02:25:54.708Z,1001.71
2019-04-11T02:26:54.687Z,1001.74
2019-04-11T02:27:56.002Z,1001.71
2019-04-11T02:28:55.192Z,1001.72
2019-04-11T02:29:55.153Z,1001.76
2019-04-11T02:30:56.256Z,1001.71
2019-04-11T02:31:55.073Z,1001.78
2019-04-11T02:32:56.108Z,1001.80
2019-04-11T02:33:55.302Z,1001.75
2019-04-11T02:34:57.135Z,1001.74
2019-04-11T02:35:56.399Z,1001.80
2019-04-11T02:36:56.387Z,1001.77
2019-04-11T02:37:55.086Z,1001.80
2019-04-11T02:38:59.368Z,1001.79
2019-04-11T02:39:57.487Z,1001.79
2019-04-11T02:40:55.285Z,1001.80
2019-04-11T02:41:54.926Z,1001.82
2019-04-11T02:42:54.872Z,1001.79
2019-04-11T02:43:55.004Z,1001.82
2019-04-11T02:45:09.346Z,1001.84
2019-04-11T02:46:09.053Z,1001.81
2019-04-11T02:47:03.301Z,1001.79
2019-04-11T02:47:56.409Z,1001.84
2019-04-11T02:48:56.488Z,1001.85
2019-04-11T02:49:55.057Z,1001.85
2019-04-11T02:50:56.316Z,1001.89
2019-04-11T02:51:55.983Z,1001.84
2019-04-11T02:52:54.399Z,1001.90
2019-04-11T02:53:56.569Z,1001.92
2019-04-11T02:54:54.616Z,1001.90
2019-04-11T02:55:56.367Z,1001.91
2019-04-11T02:56:54.888Z,1001.90
2019-04-11T02:57:54.521Z,1001.92
2019-04-11T02:58:54.681Z,1001.93
2019-04-11T02:59:56.061Z,1001.96
2019-04-11T03:00:55.955Z,1001.90
2019-04-11T03:01:55.694Z,1001.92
2019-04-11T03:02:54.334Z,1001.93
2019-04-11T03:03:56.559Z,1001.93
2019-04-11T03:04:55.766Z,1001.90
2019-04-11T03:05:55.461Z,1001.92
2019-04-11T03:06:55.359Z,1001.92
2019-04-11T03:07:54.293Z,1001.93
2019-04-11T03:08:55.000Z,1001.93
2019-04-11T03:09:56.090Z,1001.91
2019-04-11T03:10:55.613Z,1001.90
2019-04-11T03:11:54.835Z,1001.92
2019-04-11T03:12:54.537Z,1001.93
2019-04-11T03:13:54.820Z,1001.91
2019-04-11T03:15:09.332Z,1001.91
2019-04-11T03:16:10.215Z,1001.91
2019-04-11T03:17:03.675Z,1001.92
2019-04-11T03:18:01.347Z,1001.94
2019-04-11T03:19:13.312Z,1002.00
2019-04-11T03:20:09.427Z,1002.02
2019-04-11T03:21:00.103Z,1002.02
2019-04-11T03:21:56.638Z,1002.02
2019-04-11T03:22:57.984Z,1002.03
2019-04-11T03:23:56.204Z,1002.01
2019-04-11T03:24:55.468Z,1002.03
2019-04-11T03:25:54.479Z,1002.03
2019-04-11T03:26:55.026Z,1002.05
2019-04-11T03:27:54.324Z,1002.12
2019-04-11T03:28:56.699Z,1002.16
2019-04-11T03:29:55.896Z,1002.13
2019-04-11T03:31:27.461Z,1002.16
2019-04-11T03:33:57.948Z,1002.19
2019-04-11T03:34:38.509Z,1002.15
2019-04-11T03:38:18.767Z,1002.19
2019-04-11T03:39:15.433Z,1002.22
2019-04-11T03:40:14.754Z,1002.24
2019-04-11T03:41:12.110Z,1002.27
2019-04-11T03:42:15.007Z,1002.27
2019-04-11T03:43:09.393Z,1002.22
2019-04-11T03:44:05.827Z,1002.22
2019-04-11T03:45:18.607Z,1002.20
2019-04-11T03:46:15.998Z,1002.18
2019-04-11T03:47:12.671Z,1002.18
2019-04-11T03:48:10.525Z,1002.17
2019-04-11T03:49:03.857Z,1002.20
2019-04-11T03:50:01.657Z,1002.21
2019-04-11T03:50:57.244Z,1002.22
2019-04-11T03:51:55.093Z,1002.25
2019-04-11T03:52:55.669Z,1002.24
2019-04-11T03:53:53.729Z,1002.29
2019-04-11T03:54:54.014Z,1002.27
2019-04-11T03:55:53.902Z,1002.26
2019-04-11T03:56:53.876Z,1002.26
2019-04-11T03:57:56.039Z,1002.30
2019-04-11T03:58:55.185Z,1002.27
2019-04-11T03:59:54.538Z,1002.29
2019-04-11T04:00:58.822Z,1002.32
2019-04-11T04:01:56.715Z,1002.32
2019-04-11T04:02:55.378Z,1002.35
2019-04-11T04:03:55.431Z,1002.35
2019-04-11T04:04:54.216Z,1002.33
2019-04-11T04:05:55.142Z,1002.33
2019-04-11T04:06:55.201Z,1002.37
2019-04-11T04:07:55.186Z,1002.40
2019-04-11T04:08:55.286Z,1002.41
2019-04-11T04:09:54.386Z,1002.44
2019-04-11T04:10:53.702Z,1002.45
2019-04-11T04:11:54.586Z,1002.45
2019-04-11T04:12:53.724Z,1002.49
2019-04-11T04:13:55.778Z,1002.48
2019-04-11T04:14:53.986Z,1002.51
2019-04-11T04:16:03.913Z,1002.52
2019-04-11T04:16:57.402Z,1002.55
2019-04-11T04:17:55.135Z,1002.60
2019-04-11T04:18:54.213Z,1002.61
2019-04-11T04:19:54.256Z,1002.60
2019-04-11T04:20:53.773Z,1002.65
2019-04-11T04:21:55.175Z,1002.65
2019-04-11T04:22:54.551Z,1002.60
2019-04-11T04:23:54.631Z,1002.63
2019-04-11T04:24:55.514Z,1002.66
2019-04-11T04:25:54.459Z,1002.67
2019-04-11T04:26:54.640Z,1002.69
2019-04-11T04:27:54.679Z,1002.70
2019-04-11T04:28:53.549Z,1002.72
2019-04-11T04:29:57.456Z,1002.71
2019-04-11T04:30:54.536Z,1002.71
2019-04-11T04:31:54.977Z,1002.76
2019-04-11T04:32:54.546Z,1002.76
2019-04-11T04:33:53.492Z,1002.78
2019-04-11T04:34:53.411Z,1002.80
2019-04-11T04:35:53.259Z,1002.83
2019-04-11T04:36:53.724Z,1002.83
2019-04-11T04:37:54.522Z,1002.82
2019-04-11T04:38:54.550Z,1002.84
2019-04-11T04:40:13.351Z,1002.84
2019-04-11T04:41:07.384Z,1002.81
2019-04-11T04:42:03.661Z,1002.89
2019-04-11T04:42:56.225Z,1002.85
2019-04-11T04:43:54.742Z,1002.92
2019-04-11T04:44:53.897Z,1002.93
2019-04-11T04:46:08.505Z,1002.93
2019-04-11T04:47:07.769Z,1002.95
2019-04-11T04:48:01.396Z,1002.98
2019-04-11T04:48:55.774Z,1002.97
2019-04-11T04:49:54.366Z,1002.99
2019-04-11T04:50:56.781Z,1002.98
2019-04-11T04:51:53.367Z,1003.02
2019-04-11T04:52:53.540Z,1002.96
2019-04-11T04:53:53.064Z,1002.99
2019-04-11T04:54:54.810Z,1003.03
2019-04-11T04:55:54.309Z,1003.04
2019-04-11T04:56:54.518Z,1003.04
2019-04-11T04:57:53.397Z,1003.05
2019-04-11T04:58:54.067Z,1003.06
2019-04-11T04:59:53.275Z,1003.13
2019-04-11T05:00:54.247Z,1003.13
2019-04-11T05:01:53.486Z,1003.11
2019-04-11T05:02:54.702Z,1003.15
2019-04-11T05:03:54.057Z,1003.16
2019-04-11T05:04:54.265Z,1003.13
2019-04-11T05:05:53.424Z,1003.13
2019-04-11T05:06:54.389Z,1003.18
2019-04-11T05:07:54.016Z,1003.12
2019-04-11T05:08:52.898Z,1003.10
2019-04-11T05:09:54.390Z,1003.15
2019-04-11T05:10:53.398Z,1003.18
2019-04-11T05:11:53.198Z,1003.19
2019-04-11T05:12:52.851Z,1003.21
2019-04-11T05:13:54.345Z,1003.24
2019-04-11T05:14:54.108Z,1003.21
2019-04-11T05:16:05.848Z,1003.14
2019-04-11T05:16:54.618Z,1003.22
2019-04-11T05:17:53.371Z,1003.20
2019-04-11T05:18:52.784Z,1003.27
2019-04-11T05:19:52.794Z,1003.27
2019-04-11T05:20:52.873Z,1003.29
2019-04-11T05:21:52.751Z,1003.28
2019-04-11T05:22:52.744Z,1003.30
2019-04-11T05:23:52.728Z,1003.32
2019-04-11T05:24:53.923Z,1003.29
2019-04-11T05:25:53.052Z,1003.31
2019-04-11T05:26:52.696Z,1003.32
2019-04-11T05:27:53.897Z,1003.25
2019-04-11T05:28:53.017Z,1003.33
2019-04-11T05:29:53.544Z,1003.34
2019-04-11T05:30:53.210Z,1003.35
2019-04-11T05:31:52.663Z,1003.33
2019-04-11T05:32:53.493Z,1003.36
2019-04-11T05:33:53.819Z,1003.37
2019-04-11T05:34:53.092Z,1003.38
2019-04-11T05:35:52.621Z,1003.43
2019-04-11T05:36:53.306Z,1003.43
2019-04-11T05:37:53.592Z,1003.43
2019-04-11T05:38:52.711Z,1003.45
2019-04-11T05:39:52.586Z,1003.48
2019-04-11T05:40:52.540Z,1003.44
2019-04-11T05:41:52.578Z,1003.40
2019-04-11T05:42:54.145Z,1003.45
2019-04-11T05:43:53.440Z,1003.44
2019-04-11T05:44:52.524Z,1003.43
2019-04-11T05:45:55.066Z,1003.47
2019-04-11T05:46:57.600Z,1003.45
2019-04-11T05:47:55.056Z,1003.45
2019-04-11T05:48:54.955Z,1003.49
2019-04-11T05:49:53.454Z,1003.52
2019-04-11T05:50:53.816Z,1003.51
2019-04-11T05:51:57.570Z,1003.48
2019-04-11T05:52:54.515Z,1003.52
2019-04-11T05:53:54.488Z,1003.54
2019-04-11T05:54:52.606Z,1003.44
2019-04-11T05:55:53.157Z,1003.45
2019-04-11T05:56:56.249Z,1003.47
2019-04-11T05:57:54.403Z,1003.44
2019-04-11T05:58:53.454Z,1003.46
2019-04-11T05:59:53.440Z,1003.45
2019-04-11T06:00:53.311Z,1003.44
2019-04-11T06:01:53.021Z,1003.45
2019-04-11T06:02:53.295Z,1003.49
2019-04-11T06:03:53.557Z,1003.47
2019-04-11T06:04:55.899Z,1003.51
2019-04-11T06:05:52.296Z,1003.53
2019-04-11T06:06:52.808Z,1003.52
2019-04-11T06:07:54.779Z,1003.49
2019-04-11T06:08:54.165Z,1003.51
2019-04-11T06:09:53.240Z,1003.50
2019-04-11T06:10:52.512Z,1003.50
2019-04-11T06:11:54.607Z,1003.49
2019-04-11T06:12:52.640Z,1003.55
2019-04-11T06:13:53.058Z,1003.58
2019-04-11T06:14:52.335Z,1003.59
2019-04-11T06:15:53.432Z,1003.58
2019-04-11T06:16:55.634Z,1003.61
2019-04-11T06:17:52.368Z,1003.65
2019-04-11T06:18:52.242Z,1003.62
2019-04-11T06:19:52.107Z,1003.65
2019-04-11T06:20:52.146Z,1003.65
2019-04-11T06:21:52.613Z,1003.65
2019-04-11T06:22:52.184Z,1003.68
2019-04-11T06:23:52.087Z,1003.72
2019-04-11T06:24:52.349Z,1003.70
2019-04-11T06:25:53.276Z,1003.68
2019-04-11T06:26:52.200Z,1003.68
2019-04-11T06:27:52.034Z,1003.69
2019-04-11T06:28:54.254Z,1003.64
2019-04-11T06:29:52.958Z,1003.69
2019-04-11T06:30:52.739Z,1003.69
2019-04-11T06:31:51.973Z,1003.71
2019-04-11T06:32:52.119Z,1003.70
2019-04-11T06:33:53.059Z,1003.72
2019-04-11T06:34:51.963Z,1003.74
2019-04-11T06:35:52.453Z,1003.78
2019-04-11T06:36:52.944Z,1003.79
2019-04-11T06:37:52.201Z,1003.72
2019-04-11T06:38:51.919Z,1003.73
2019-04-11T06:39:51.884Z,1003.75
2019-04-11T06:40:52.471Z,1003.79
2019-04-11T06:41:51.861Z,1003.81
2019-04-11T06:42:51.875Z,1003.74
2019-04-11T06:43:52.121Z,1003.82
2019-04-11T06:44:52.680Z,1003.78
2019-04-11T06:45:52.426Z,1003.77
2019-04-11T06:46:55.804Z,1003.77
2019-04-11T06:47:53.492Z,1003.79
2019-04-11T06:48:51.889Z,1003.78
2019-04-11T06:49:52.946Z,1003.78
2019-04-11T06:50:51.768Z,1003.77
2019-04-11T06:51:52.556Z,1003.69
2019-04-11T06:52:52.732Z,1003.75
2019-04-11T06:53:52.593Z,1003.75
2019-04-11T06:54:52.408Z,1003.73
2019-04-11T06:55:51.710Z,1003.75
2019-04-11T06:56:52.215Z,1003.74
2019-04-11T06:57:51.712Z,1003.74
2019-04-11T06:58:53.564Z,1003.70
2019-04-11T06:59:52.502Z,1003.76
2019-04-11T07:00:51.787Z,1003.76
2019-04-11T07:01:51.669Z,1003.75
2019-04-11T07:02:52.835Z,1003.78
2019-04-11T07:03:51.617Z,1003.77
2019-04-11T07:04:51.825Z,1003.81
2019-04-11T07:05:51.621Z,1003.72
2019-04-11T07:06:51.781Z,1003.74
2019-04-11T07:07:51.713Z,1003.75
2019-04-11T07:08:51.594Z,1003.76
2019-04-11T07:09:51.577Z,1003.75
2019-04-11T07:10:51.540Z,1003.76
2019-04-11T07:11:52.552Z,1003.77
2019-04-11T07:12:55.199Z,1003.77
2019-04-11T07:13:51.509Z,1003.83
2019-04-11T07:14:51.555Z,1003.81
2019-04-11T07:15:52.770Z,1003.83
2019-04-11T07:17:01.415Z,1003.86
2019-04-11T07:17:52.597Z,1003.90
2019-04-11T07:18:52.567Z,1003.82
2019-04-11T07:19:51.537Z,1003.89
2019-04-11T07:20:52.354Z,1003.90
2019-04-11T07:21:52.543Z,1003.87
2019-04-11T07:22:51.411Z,1003.83
2019-04-11T07:23:51.631Z,1003.83
2019-04-11T07:24:51.382Z,1003.82
2019-04-11T07:25:51.797Z,1003.79
2019-04-11T07:26:52.165Z,1003.80
2019-04-11T07:27:51.349Z,1003.79
2019-04-11T07:28:52.284Z,1003.85
2019-04-11T07:29:51.331Z,1003.80
2019-04-11T07:30:51.330Z,1003.82
2019-04-11T07:31:52.918Z,1003.82
2019-04-11T07:32:51.295Z,1003.78
2019-04-11T07:33:51.873Z,1003.83
2019-04-11T07:34:52.676Z,1003.76
2019-04-11T07:35:51.278Z,1003.84
2019-04-11T07:36:51.271Z,1003.88
2019-04-11T07:37:51.236Z,1003.93
2019-04-11T07:38:52.318Z,1003.93
2019-04-11T07:39:51.644Z,1003.90
2019-04-11T07:40:51.909Z,1003.90
2019-04-11T07:41:52.148Z,1003.87
2019-04-11T07:42:52.836Z,1003.89
2019-04-11T07:43:52.061Z,1003.93
2019-04-11T07:44:51.763Z,1003.90
2019-04-11T07:45:51.286Z,1003.97
2019-04-11T07:46:51.593Z,1003.90
2019-04-11T07:47:51.132Z,1003.91
2019-04-11T07:48:51.115Z,1003.87
2019-04-11T07:49:53.429Z,1003.92
2019-04-11T07:50:53.710Z,1003.92
2019-04-11T07:51:51.093Z,1003.90
2019-04-11T07:52:51.589Z,1003.93
2019-04-11T07:53:51.061Z,1003.91
2019-04-11T07:54:51.445Z,1003.98
2019-04-11T07:55:51.120Z,1004.00
2019-04-11T07:56:51.026Z,1003.88
2019-04-11T07:57:51.014Z,1003.92
2019-04-11T07:58:51.002Z,1003.97
2019-04-11T07:59:51.232Z,1003.99
2019-04-11T08:00:52.822Z,1003.92
2019-04-11T08:01:50.990Z,1003.95
2019-04-11T08:02:50.954Z,1003.96
2019-04-11T08:03:51.277Z,1003.99
2019-04-11T08:04:50.933Z,1003.98
2019-04-11T08:05:51.118Z,1004.01
2019-04-11T08:06:52.040Z,1004.05
2019-04-11T08:07:51.439Z,1004.01
2019-04-11T08:08:51.423Z,1003.92
2019-04-11T08:09:50.878Z,1004.01
2019-04-11T08:10:50.889Z,1004.05
2019-04-11T08:11:51.892Z,1004.01
2019-04-11T08:12:51.763Z,1004.00
2019-04-11T08:13:53.603Z,1004.05
2019-04-11T08:14:51.078Z,1003.97
2019-04-11T08:15:50.832Z,1004.04
2019-04-11T08:16:51.106Z,1004.01
2019-04-11T08:17:50.785Z,1004.02
2019-04-11T08:18:50.981Z,1004.08
2019-04-11T08:19:51.230Z,1004.10
2019-04-11T08:20:50.768Z,1004.06
2019-04-11T08:21:50.747Z,1004.02
2019-04-11T08:22:51.617Z,1004.02
2019-04-11T08:23:51.935Z,1004.02
2019-04-11T08:24:51.035Z,1003.97
2019-04-11T08:25:50.704Z,1004.07
2019-04-11T08:26:50.710Z,1004.03
2019-04-11T08:27:58.286Z,1004.09
2019-04-11T08:29:01.439Z,1004.03
2019-04-11T08:29:52.951Z,1004.02
2019-04-11T08:30:50.963Z,1003.99
2019-04-11T08:31:52.353Z,1004.07
2019-04-11T08:32:51.851Z,1004.06
2019-04-11T08:33:50.942Z,1004.04
2019-04-11T08:34:51.345Z,1004.06
2019-04-11T08:35:53.500Z,1004.07
2019-04-11T08:36:50.656Z,1004.14
2019-04-11T08:37:51.777Z,1004.12
2019-04-11T08:38:50.897Z,1004.14
2019-04-11T08:39:50.536Z,1004.12
2019-04-11T08:40:51.357Z,1004.09
2019-04-11T08:41:51.625Z,1004.17
2019-04-11T08:42:50.851Z,1004.14
2019-04-11T08:43:51.215Z,1004.12
2019-04-11T08:44:50.494Z,1004.18
2019-04-11T08:45:50.679Z,1004.07
2019-04-11T08:46:51.119Z,1004.09
2019-04-11T08:47:54.553Z,1004.09
2019-04-11T08:48:51.465Z,1004.10
2019-04-11T08:49:50.424Z,1004.21
2019-04-11T08:50:50.489Z,1004.19
2019-04-11T08:51:51.606Z,1004.15
2019-04-11T08:52:50.389Z,1004.13
2019-04-11T08:53:51.131Z,1004.17
2019-04-11T08:54:50.393Z,1004.15
2019-04-11T08:55:55.762Z,1004.15
2019-04-11T08:56:51.544Z,1004.20
2019-04-11T08:57:50.334Z,1004.17
2019-04-11T08:58:51.046Z,1004.16
2019-04-11T08:59:51.258Z,1004.13
2019-04-11T09:00:51.176Z,1004.12
2019-04-11T09:01:50.294Z,1004.13
2019-04-11T09:02:51.322Z,1004.17
2019-04-11T09:03:59.788Z,1004.09
2019-04-11T09:05:02.701Z,1004.10
2019-04-11T09:05:51.362Z,1004.06
2019-04-11T09:06:50.239Z,1004.02
2019-04-11T09:07:50.220Z,1004.17
2019-04-11T09:08:51.086Z,1004.15
2019-04-11T09:09:51.449Z,1004.09
2019-04-11T09:10:50.735Z,1004.07
2019-04-11T09:11:50.179Z,1004.04
2019-04-11T09:12:50.955Z,1004.05
2019-04-11T09:13:51.370Z,1004.09
2019-04-11T09:14:50.590Z,1004.16
2019-04-11T09:15:50.829Z,1004.04
2019-04-11T09:16:50.145Z,1004.05
2019-04-11T09:18:01.049Z,1004.18
2019-04-11T09:18:52.376Z,1004.11
2019-04-11T09:19:50.460Z,1004.15
2019-04-11T09:20:50.075Z,1004.02
2019-04-11T09:21:50.821Z,1004.16
2019-04-11T09:22:50.070Z,1004.07
2019-04-11T09:23:50.169Z,1004.09
2019-04-11T09:24:50.547Z,1004.01
2019-04-11T09:25:51.705Z,1004.02
2019-04-11T09:26:50.044Z,1004.04
2019-04-11T09:27:51.065Z,1004.04
2019-04-11T09:28:49.985Z,1004.05
2019-04-11T09:29:50.369Z,1003.96
2019-04-11T09:30:49.995Z,1004.03
2019-04-11T09:31:49.975Z,1004.05
2019-04-11T09:32:50.737Z,1004.00
2019-04-11T09:33:50.079Z,1004.06
2019-04-11T09:34:50.183Z,1004.01
2019-04-11T09:35:49.908Z,1003.95
2019-04-11T09:36:49.913Z,1004.06
2019-04-11T09:37:49.893Z,1004.03
2019-04-11T09:38:50.747Z,1004.00
2019-04-11T09:39:50.992Z,1004.07
2019-04-11T09:40:50.143Z,1004.00
2019-04-11T09:41:49.856Z,1003.93
2019-04-11T09:42:49.826Z,1003.92
2019-04-11T09:43:50.528Z,1003.99
2019-04-11T09:44:49.871Z,1003.85
2019-04-11T09:45:50.851Z,1003.84
2019-04-11T09:46:50.583Z,1003.84
2019-04-11T09:47:49.880Z,1003.92
2019-04-11T09:48:50.530Z,1003.92
2019-04-11T09:49:49.751Z,1003.93
2019-04-11T09:50:49.743Z,1003.97
2019-04-11T09:51:49.928Z,1004.03
2019-04-11T09:52:49.719Z,1004.12
2019-04-11T09:53:50.684Z,1004.14
2019-04-11T09:54:50.580Z,1004.03
2019-04-11T09:55:50.062Z,1003.94
2019-04-11T09:56:49.668Z,1004.00
2019-04-11T09:57:50.398Z,1003.97
2019-04-11T09:58:49.760Z,1004.01
2019-04-11T09:59:49.793Z,1003.95
2019-04-11T10:00:51.082Z,1003.98
2019-04-11T10:01:49.664Z,1004.01
2019-04-11T10:02:50.583Z,1003.95
2019-04-11T10:03:50.758Z,1003.94
2019-04-11T10:04:50.182Z,1004.01
2019-04-11T10:05:50.315Z,1004.01
2019-04-11T10:06:49.607Z,1003.89
2019-04-11T10:07:50.298Z,1003.92
2019-04-11T10:08:49.556Z,1003.92
2019-04-11T10:09:50.478Z,1003.93
2019-04-11T10:10:49.539Z,1003.92
2019-04-11T10:11:50.449Z,1003.92
2019-04-11T10:12:49.485Z,1003.99
2019-04-11T10:13:49.499Z,1003.93
2019-04-11T10:14:50.157Z,1003.99
2019-04-11T10:15:49.454Z,1003.96
2019-04-11T10:16:50.604Z,1003.98
2019-04-11T10:17:50.515Z,1003.98
2019-04-11T10:18:49.574Z,1003.96
2019-04-11T10:19:49.408Z,1003.95
2019-04-11T10:20:49.430Z,1003.91
2019-04-11T10:21:49.945Z,1003.94
2019-04-11T10:22:49.373Z,1003.96
2019-04-11T10:23:49.366Z,1004.02
2019-04-11T10:24:50.464Z,1004.00
2019-04-11T10:25:49.737Z,1004.05
2019-04-11T10:26:50.001Z,1003.98
2019-04-11T10:27:49.318Z,1003.88
2019-04-11T10:28:49.629Z,1003.96
2019-04-11T10:29:50.437Z,1003.87
2019-04-11T10:30:50.279Z,1003.89
2019-04-11T10:31:49.288Z,1003.90
2019-04-11T10:32:49.687Z,1003.82
2019-04-11T10:33:49.249Z,1003.89
2019-04-11T10:34:50.005Z,1003.90
2019-04-11T10:35:50.340Z,1003.94
2019-04-11T10:36:49.577Z,1003.94
2019-04-11T10:37:49.811Z,1003.82
2019-04-11T10:38:49.198Z,1003.87
2019-04-11T10:39:49.316Z,1003.83
2019-04-11T10:40:50.290Z,1003.91
2019-04-11T10:41:50.225Z,1004.00
2019-04-11T10:42:49.148Z,1003.97
2019-04-11T10:43:49.585Z,1003.94
2019-04-11T10:44:49.853Z,1004.04
2019-04-11T10:45:49.113Z,1004.03
2019-04-11T10:46:49.558Z,1004.02
2019-04-11T10:47:49.375Z,1003.94
2019-04-11T10:48:50.362Z,1003.94
2019-04-11T10:49:49.069Z,1003.94
2019-04-11T10:50:49.082Z,1003.96
2019-04-11T10:51:49.770Z,1003.92
2019-04-11T10:52:49.058Z,1003.90
2019-04-11T10:53:49.267Z,1003.87
2019-04-11T10:54:49.198Z,1003.92
2019-04-11T10:55:49.566Z,1003.89
2019-04-11T10:56:49.536Z,1003.90
2019-04-11T10:57:49.011Z,1003.84
2019-04-11T10:58:49.173Z,1003.89
2019-04-11T10:59:49.097Z,1003.91
2019-04-11T11:00:48.946Z,1003.88
2019-04-11T11:01:48.932Z,1003.89
2019-04-11T11:02:49.376Z,1003.89
2019-04-11T11:03:49.381Z,1003.97
2019-04-11T11:04:48.903Z,1003.94
2019-04-11T11:05:49.317Z,1003.94
2019-04-11T11:06:48.881Z,1003.91
2019-04-11T11:07:48.961Z,1003.93
2019-04-11T11:08:49.944Z,1003.94
2019-04-11T11:09:48.844Z,1003.90
2019-04-11T11:10:49.823Z,1003.93
2019-04-11T11:11:48.821Z,1003.94
2019-04-11T11:12:49.642Z,1003.92
2019-04-11T11:13:50.032Z,1003.94
2019-04-11T11:14:49.045Z,1003.89
2019-04-11T11:15:49.795Z,1003.98
2019-04-11T11:16:48.773Z,1004.01
2019-04-11T11:18:20.331Z,1003.97
2019-04-11T11:19:19.472Z,1003.97
2019-04-11T11:19:58.356Z,1004.03
2019-04-11T11:20:55.021Z,1004.00
2019-04-11T11:21:49.709Z,1003.99
2019-04-11T11:22:48.712Z,1004.02
2019-04-11T11:23:49.358Z,1004.06
2019-04-11T11:24:48.697Z,1004.06
2019-04-11T11:25:51.347Z,1003.99
2019-04-11T11:26:52.086Z,1003.98
2019-04-11T11:27:48.644Z,1003.97
2019-04-11T11:28:48.850Z,1003.94
2019-04-11T11:29:48.617Z,1003.94
2019-04-11T11:30:49.569Z,1003.93
2019-04-11T11:31:49.201Z,1004.04
2019-04-11T11:32:49.591Z,1004.08
2019-04-11T11:33:49.035Z,1004.06
2019-04-11T11:34:52.115Z,1003.98
2019-04-11T11:35:49.893Z,1004.05
2019-04-11T11:36:49.967Z,1004.00
2019-04-11T11:37:49.291Z,1003.93
2019-04-11T11:38:48.515Z,1003.94
2019-04-11T11:39:49.098Z,1003.89
2019-04-11T11:40:48.496Z,1003.91
2019-04-11T11:41:48.964Z,1003.96
2019-04-11T11:42:48.470Z,1003.95
2019-04-11T11:43:49.718Z,1003.95
2019-04-11T11:44:48.807Z,1003.89
2019-04-11T11:45:52.439Z,1003.92
2019-04-11T11:46:50.053Z,1003.98
2019-04-11T11:47:49.026Z,1003.95
2019-04-11T11:48:52.213Z,1003.93
2019-04-11T11:49:57.145Z,1003.91
2019-04-11T11:50:51.369Z,1003.86
2019-04-11T11:51:48.372Z,1003.93
2019-04-11T11:52:48.960Z,1003.91
2019-04-11T11:53:49.042Z,1003.97
2019-04-11T11:54:48.334Z,1003.88
2019-04-11T11:55:49.459Z,1003.86
2019-04-11T11:56:48.957Z,1003.90
2019-04-11T11:57:48.301Z,1003.76
2019-04-11T11:58:53.343Z,1003.80
2019-04-11T11:59:50.450Z,1003.74
2019-04-11T12:00:50.725Z,1003.80
2019-04-11T12:01:50.773Z,1003.78
2019-04-11T12:02:51.230Z,1003.87
2019-04-11T12:03:48.799Z,1003.93
2019-04-11T12:04:48.572Z,1003.85
2019-04-11T12:05:50.218Z,1003.91
2019-04-11T12:06:50.666Z,1003.88
2019-04-11T12:07:49.347Z,1003.85
2019-04-11T12:08:49.675Z,1003.85
2019-04-11T12:09:48.902Z,1003.85